Time;durP1;ratioP1;P1;durP2;ratioP2;P2;SDS_P1;SDS_P2;PMS_P1;PMS_P2;Temp;Humidity;BMP_temperature;BMP_pressure;BME280_temperature;BME280_humidity;BME280_pressure;Samples;Min_cycle;Max_cycle;Signal;HPM_P1;HPM_P2
2021/04/24 00:00:29;;;;;;;8.85;3.15;;;;;;;;;;5055859;28;20024;-85
2021/04/24 00:02:55;;;;;;;7.55;3.40;;;;;;;;;;5057470;28;20056;-85
2021/04/24 00:05:30;;;;;;;6.28;3.22;;;;;;;;;;5056830;28;20031;-85
2021/04/24 00:07:58;;;;;;;6.88;3.28;;;;;;;;;;5057121;28;20528;-85
2021/04/24 00:10:24;;;;;;;6.22;3.50;;;;;;;;;;5057254;28;20032;-85
2021/04/24 00:12:50;;;;;;;4.32;3.17;;;;;;;;;;5057357;28;20588;-84
2021/04/24 00:15:16;;;;;;;5.88;3.28;;;;;;;;;;5039745;28;20036;-85
2021/04/24 00:17:42;;;;;;;7.28;3.35;;;;;;;;;;5069181;28;20016;-85
2021/04/24 00:20:10;;;;;;;5.15;2.58;;;;;;;;;;5057713;28;20028;-85
2021/04/24 00:22:37;;;;;;;6.28;3.28;;;;;;;;;;5074883;28;20028;-85
2021/04/24 00:25:03;;;;;;;5.45;3.28;;;;;;;;;;5057223;28;20029;-85
2021/04/24 00:27:29;;;;;;;12.85;3.58;;;;;;;;;;5057015;28;20472;-85
2021/04/24 00:29:55;;;;;;;9.30;3.13;;;;;;;;;;5075104;28;20032;-85
2021/04/24 00:32:21;;;;;;;7.63;2.72;;;;;;;;;;5057004;28;20052;-85
2021/04/24 00:34:47;;;;;;;6.28;2.90;;;;;;;;;;5057218;28;20105;-85
2021/04/24 00:37:13;;;;;;;11.73;3.40;;;;;;;;;;5057152;28;20488;-85
2021/04/24 00:39:39;;;;;;;9.45;3.42;;;;;;;;;;5075072;28;20017;-85
2021/04/24 00:42:06;;;;;;;8.52;3.25;;;;;;;;;;5056632;28;20074;-85
2021/04/24 00:44:32;;;;;;;6.40;3.42;;;;;;;;;;5056779;28;20067;-85
2021/04/24 00:46:58;;;;;;;7.40;3.30;;;;;;;;;;5055704;28;20122;-85
2021/04/24 00:49:24;;;;;;;10.60;4.00;;;;;;;;;;5056844;28;20067;-84
2021/04/24 00:51:50;;;;;;;8.68;3.20;;;;;;;;;;5074529;28;20028;-85
2021/04/24 00:54:16;;;;;;;8.68;3.47;;;;;;;;;;5056637;28;20040;-85
2021/04/24 00:56:43;;;;;;;8.45;2.88;;;;;;;;;;5045076;28;20421;-85
2021/04/24 00:59:09;;;;;;;9.20;3.22;;;;;;;;;;5073833;28;20476;-85
2021/04/24 01:01:35;;;;;;;9.90;3.53;;;;;;;;;;5051296;28;20017;-85
2021/04/24 01:04:01;;;;;;;10.30;3.45;;;;;;;;;;5077456;28;20498;-85
2021/04/24 01:06:28;;;;;;;8.52;3.33;;;;;;;;;;5054855;28;20515;-85
2021/04/24 01:08:54;;;;;;;6.72;2.95;;;;;;;;;;5052744;28;20439;-86
2021/04/24 01:11:20;;;;;;;8.98;3.03;;;;;;;;;;5053104;28;20507;-85
2021/04/24 01:13:46;;;;;;;9.73;3.40;;;;;;;;;;5052662;28;20029;-85
2021/04/24 01:16:12;;;;;;;8.02;3.13;;;;;;;;;;5052904;28;20170;-86
2021/04/24 01:18:38;;;;;;;8.25;3.15;;;;;;;;;;5049054;28;20018;-85
2021/04/24 01:21:08;;;;;;;8.48;3.22;;;;;;;;;;5032780;28;20116;-85
2021/04/24 01:23:34;;;;;;;12.27;3.22;;;;;;;;;;5042033;28;20041;-85
2021/04/24 01:26:01;;;;;;;8.25;4.00;;;;;;;;;;5051996;28;20538;-85
2021/04/24 01:28:28;;;;;;;5.28;2.55;;;;;;;;;;5053160;28;20032;-85
2021/04/24 01:30:54;;;;;;;9.15;3.67;;;;;;;;;;5052307;28;20031;-85
2021/04/24 01:33:20;;;;;;;5.30;2.55;;;;;;;;;;5053319;28;20079;-85
2021/04/24 01:35:46;;;;;;;9.00;3.80;;;;;;;;;;5052471;28;20021;-85
2021/04/24 01:38:13;;;;;;;10.45;3.25;;;;;;;;;;5051177;28;20029;-85
2021/04/24 01:40:39;;;;;;;9.35;3.67;;;;;;;;;;5052642;28;20124;-85
2021/04/24 01:43:06;;;;;;;13.20;3.70;;;;;;;;;;5051756;28;20096;-85
2021/04/24 01:45:33;;;;;;;8.52;3.63;;;;;;;;;;5052051;28;20061;-85
2021/04/24 01:47:59;;;;;;;12.95;4.20;;;;;;;;;;5052516;28;20025;-85
2021/04/24 01:50:28;;;;;;;8.38;3.13;;;;;;;;;;5052487;28;20029;-85
2021/04/24 01:52:56;;;;;;;12.85;3.80;;;;;;;;;;5052016;28;20120;-85
2021/04/24 01:55:24;;;;;;;9.50;3.63;;;;;;;;;;5053225;28;20033;-85
2021/04/24 01:57:51;;;;;;;8.85;3.38;;;;;;;;;;5051799;28;20116;-85
2021/04/24 02:00:19;;;;;;;8.20;3.60;;;;;;;;;;5052326;28;20028;-85
2021/04/24 02:02:45;;;;;;;12.90;3.80;;;;;;;;;;5054678;28;20044;-85
2021/04/24 02:05:12;;;;;;;8.82;3.53;;;;;;;;;;5055343;28;20048;-86
2021/04/24 02:07:38;;;;;;;11.15;3.92;;;;;;;;;;5054415;28;20404;-86
2021/04/24 02:10:09;;;;;;;13.40;4.03;;;;;;;;;;5055598;28;20041;-85
2021/04/24 02:12:35;;;;;;;13.40;4.57;;;;;;;;;;5056889;28;20076;-85
2021/04/24 02:15:01;;;;;;;11.65;4.35;;;;;;;;;;5055514;28;20056;-85
2021/04/24 02:17:27;;;;;;;11.38;4.28;;;;;;;;;;5055607;28;20509;-85
2021/04/24 02:19:54;;;;;;;17.70;4.53;;;;;;;;;;5055589;28;20115;-85
2021/04/24 02:22:21;;;;;;;9.43;3.85;;;;;;;;;;5055438;28;20025;-85
2021/04/24 02:24:50;;;;;;;10.55;4.38;;;;;;;;;;5055812;28;20078;-85
2021/04/24 02:27:16;;;;;;;8.57;4.32;;;;;;;;;;5055236;28;20472;-85
2021/04/24 02:29:44;;;;;;;13.57;4.35;;;;;;;;;;5055178;28;20064;-85
2021/04/24 02:32:11;;;;;;;9.63;4.05;;;;;;;;;;5054214;28;20031;-85
2021/04/24 02:34:41;;;;;;;12.45;4.20;;;;;;;;;;5055216;28;20496;-85
2021/04/24 02:37:07;;;;;;;9.88;4.13;;;;;;;;;;5055306;28;20116;-85
2021/04/24 02:39:34;;;;;;;13.95;4.30;;;;;;;;;;5056339;28;20027;-85
2021/04/24 02:42:02;;;;;;;8.98;4.22;;;;;;;;;;5055397;28;20122;-85
2021/04/24 02:44:28;;;;;;;11.70;4.03;;;;;;;;;;5048348;28;20092;-86
2021/04/24 02:46:54;;;;;;;15.15;4.72;;;;;;;;;;5034971;28;20037;-85
2021/04/24 02:49:20;;;;;;;11.27;4.55;;;;;;;;;;5034914;28;20018;-85
2021/04/24 02:51:46;;;;;;;11.77;4.75;;;;;;;;;;5035041;28;20531;-85
2021/04/24 02:54:12;;;;;;;17.77;4.63;;;;;;;;;;5050974;28;20064;-85
2021/04/24 02:56:38;;;;;;;10.02;4.55;;;;;;;;;;5055123;28;20156;-85
2021/04/24 02:59:04;;;;;;;9.55;4.13;;;;;;;;;;5054164;28;20075;-85
2021/04/24 03:01:31;;;;;;;14.68;5.30;;;;;;;;;;5053027;28;20033;-85
2021/04/24 03:03:57;;;;;;;12.63;5.05;;;;;;;;;;5055237;28;20497;-85
2021/04/24 03:06:22;;;;;;;11.70;5.10;;;;;;;;;;5053767;28;20079;-85
2021/04/24 03:08:48;;;;;;;12.45;3.95;;;;;;;;;;5054305;28;20456;-85
2021/04/24 03:11:15;;;;;;;11.93;4.10;;;;;;;;;;5054157;28;20025;-85
2021/04/24 03:13:41;;;;;;;11.60;4.97;;;;;;;;;;5054118;28;20040;-85
2021/04/24 03:16:07;;;;;;;9.15;4.43;;;;;;;;;;5054128;28;20021;-85
2021/04/24 03:18:33;;;;;;;11.90;5.38;;;;;;;;;;5053579;28;20063;-85
2021/04/24 03:21:00;;;;;;;11.10;4.60;;;;;;;;;;5054416;28;20059;-86
2021/04/24 03:23:26;;;;;;;14.40;5.60;;;;;;;;;;5059966;28;20117;-85
2021/04/24 03:25:52;;;;;;;9.40;4.82;;;;;;;;;;5040433;28;20443;-85
2021/04/24 03:28:18;;;;;;;12.95;4.80;;;;;;;;;;5050091;28;20104;-85
2021/04/24 03:30:44;;;;;;;12.43;4.75;;;;;;;;;;5034387;28;20091;-86
2021/04/24 03:33:10;;;;;;;12.93;5.32;;;;;;;;;;5039765;28;20025;-85
2021/04/24 03:35:35;;;;;;;10.23;5.18;;;;;;;;;;5047321;28;20445;-85
2021/04/24 03:38:01;;;;;;;11.98;5.28;;;;;;;;;;5054319;28;20078;-85
2021/04/24 03:40:28;;;;;;;14.35;5.70;;;;;;;;;;5054451;28;20052;-85
2021/04/24 03:42:54;;;;;;;10.95;5.07;;;;;;;;;;5044973;28;20037;-85
2021/04/24 03:45:21;;;;;;;11.68;5.43;;;;;;;;;;5053732;28;20142;-85
2021/04/24 03:47:48;;;;;;;12.27;5.10;;;;;;;;;;5053367;28;20029;-85
2021/04/24 03:50:16;;;;;;;12.80;5.25;;;;;;;;;;5054100;28;20036;-85
2021/04/24 03:52:42;;;;;;;14.07;5.05;;;;;;;;;;5054782;28;20036;-86
2021/04/24 03:55:08;;;;;;;15.98;5.55;;;;;;;;;;5053854;28;20494;-86
2021/04/24 03:57:34;;;;;;;13.00;5.18;;;;;;;;;;5054041;28;20036;-85
2021/04/24 04:00:00;;;;;;;9.43;4.63;;;;;;;;;;5053556;28;20029;-85
2021/04/24 04:02:26;;;;;;;14.50;5.68;;;;;;;;;;5046147;28;20029;-85
2021/04/24 04:04:53;;;;;;;18.75;5.55;;;;;;;;;;5033484;28;20032;-86
2021/04/24 04:07:19;;;;;;;23.73;5.63;;;;;;;;;;5041787;28;20071;-85
2021/04/24 04:09:45;;;;;;;12.95;5.78;;;;;;;;;;5053389;28;20119;-85
2021/04/24 04:12:11;;;;;;;15.13;6.25;;;;;;;;;;5053313;28;20068;-85
2021/04/24 04:14:37;;;;;;;14.00;5.47;;;;;;;;;;5054845;28;20028;-85
2021/04/24 04:17:03;;;;;;;13.15;5.32;;;;;;;;;;5053595;28;20016;-86
2021/04/24 04:19:29;;;;;;;12.00;5.03;;;;;;;;;;5053570;28;20021;-86
2021/04/24 04:21:55;;;;;;;17.35;5.15;;;;;;;;;;5053632;28;20131;-86
2021/04/24 04:24:21;;;;;;;12.60;5.78;;;;;;;;;;5061687;28;20025;-85
2021/04/24 04:26:47;;;;;;;13.40;5.47;;;;;;;;;;5064908;28;20491;-85
2021/04/24 04:29:13;;;;;;;15.38;6.35;;;;;;;;;;5053104;28;20036;-85
2021/04/24 04:31:39;;;;;;;19.40;6.90;;;;;;;;;;5052720;28;20021;-86
2021/04/24 04:34:05;;;;;;;14.45;6.20;;;;;;;;;;5052936;28;20036;-86
2021/04/24 04:36:31;;;;;;;15.57;6.65;;;;;;;;;;5052778;28;20120;-85
2021/04/24 04:38:57;;;;;;;15.23;6.53;;;;;;;;;;5052107;28;20021;-85
2021/04/24 04:41:23;;;;;;;13.75;6.72;;;;;;;;;;5052910;28;20028;-86
2021/04/24 04:43:49;;;;;;;17.10;7.47;;;;;;;;;;5052478;28;20055;-85
2021/04/24 04:46:15;;;;;;;22.77;7.90;;;;;;;;;;5052808;28;20032;-85
2021/04/24 04:48:41;;;;;;;30.33;8.25;;;;;;;;;;5052815;28;20032;-86
2021/04/24 04:51:07;;;;;;;25.25;8.43;;;;;;;;;;5053044;28;20064;-86
2021/04/24 04:53:33;;;;;;;17.70;7.93;;;;;;;;;;5049462;28;20472;-86
2021/04/24 04:55:59;;;;;;;16.02;7.85;;;;;;;;;;5043776;28;20029;-85
2021/04/24 04:58:25;;;;;;;17.05;7.75;;;;;;;;;;5046426;28;20021;-85
2021/04/24 05:00:51;;;;;;;20.90;8.48;;;;;;;;;;5052625;28;20100;-85
2021/04/24 05:03:18;;;;;;;20.77;8.02;;;;;;;;;;5046862;28;20099;-85
2021/04/24 05:05:44;;;;;;;19.42;8.07;;;;;;;;;;5033843;28;20351;-85
2021/04/24 05:08:09;;;;;;;25.35;9.90;;;;;;;;;;5040313;28;20045;-85
2021/04/24 05:10:35;;;;;;;21.17;8.68;;;;;;;;;;5041472;28;20040;-85
2021/04/24 05:13:01;;;;;;;21.60;8.98;;;;;;;;;;5046756;28;20060;-85
2021/04/24 05:15:27;;;;;;;21.95;9.52;;;;;;;;;;5044686;28;20021;-85
2021/04/24 05:17:53;;;;;;;19.80;8.85;;;;;;;;;;5052551;28;20025;-85
2021/04/24 05:20:20;;;;;;;23.65;8.68;;;;;;;;;;5053401;28;20017;-85
2021/04/24 05:22:46;;;;;;;20.95;8.70;;;;;;;;;;5070611;28;20052;-85
2021/04/24 05:25:12;;;;;;;19.75;9.02;;;;;;;;;;5051546;28;20083;-85
2021/04/24 05:27:42;;;;;;;18.05;9.10;;;;;;;;;;5058720;28;20484;-85
2021/04/24 05:30:08;;;;;;;18.67;9.15;;;;;;;;;;5053171;28;20025;-85
2021/04/24 05:32:34;;;;;;;22.08;10.15;;;;;;;;;;5046327;28;20079;-85
2021/04/24 05:35:00;;;;;;;20.17;9.77;;;;;;;;;;5052282;28;20029;-85
2021/04/24 05:37:26;;;;;;;21.02;9.73;;;;;;;;;;5053353;28;20469;-85
2021/04/24 05:39:53;;;;;;;23.92;10.07;;;;;;;;;;5049342;28;20097;-85
2021/04/24 05:42:19;;;;;;;22.63;10.02;;;;;;;;;;5048020;28;20111;-86
2021/04/24 05:44:45;;;;;;;19.35;9.48;;;;;;;;;;5056816;28;20017;-85
2021/04/24 05:47:11;;;;;;;26.90;10.88;;;;;;;;;;5054787;28;20873;-86
2021/04/24 05:49:37;;;;;;;24.58;10.68;;;;;;;;;;5054436;28;20087;-87
2021/04/24 05:52:05;;;;;;;20.95;10.13;;;;;;;;;;5055637;28;20033;-85
2021/04/24 05:54:31;;;;;;;23.52;10.70;;;;;;;;;;5054949;28;21560;-84
2021/04/24 05:56:57;;;;;;;27.90;11.05;;;;;;;;;;5044398;28;20025;-85
2021/04/24 05:59:23;;;;;;;29.02;10.77;;;;;;;;;;5048761;28;20104;-87
2021/04/24 06:01:49;;;;;;;27.05;12.20;;;;;;;;;;5053794;28;20041;-86
2021/04/24 06:04:15;;;;;;;28.00;10.77;;;;;;;;;;5055155;28;20029;-86
2021/04/24 06:06:41;;;;;;;26.00;9.98;;;;;;;;;;5054751;28;20053;-86
2021/04/24 06:09:07;;;;;;;25.67;10.55;;;;;;;;;;5054009;28;20552;-87
2021/04/24 06:11:34;;;;;;;20.77;9.88;;;;;;;;;;5064768;28;20071;-87
2021/04/24 06:14:01;;;;;;;25.45;10.40;;;;;;;;;;5037391;28;20032;-86
2021/04/24 06:16:27;;;;;;;23.35;11.10;;;;;;;;;;5051100;28;20544;-86
2021/04/24 06:18:53;;;;;;;26.10;9.95;;;;;;;;;;5071191;28;20024;-86
2021/04/24 06:21:19;;;;;;;20.02;9.57;;;;;;;;;;5055313;28;20028;-87
2021/04/24 06:23:45;;;;;;;22.55;10.38;;;;;;;;;;5054378;28;20025;-87
2021/04/24 06:26:11;;;;;;;19.42;9.82;;;;;;;;;;5071470;28;20451;-86
2021/04/24 06:28:39;;;;;;;25.17;9.43;;;;;;;;;;5053333;28;20053;-84
2021/04/24 06:31:05;;;;;;;20.92;11.13;;;;;;;;;;5050548;28;20013;-84
2021/04/24 06:33:31;;;;;;;21.35;10.02;;;;;;;;;;5046727;28;20021;-83
2021/04/24 06:35:57;;;;;;;23.55;10.32;;;;;;;;;;5053237;28;20056;-84
2021/04/24 06:38:23;;;;;;;24.42;9.98;;;;;;;;;;5039711;28;20044;-85
2021/04/24 06:40:49;;;;;;;18.60;8.70;;;;;;;;;;5047554;28;20021;-84
2021/04/24 06:43:15;;;;;;;21.65;9.07;;;;;;;;;;5053867;28;20021;-84
2021/04/24 06:45:41;;;;;;;18.38;9.23;;;;;;;;;;5055165;28;20473;-85
2021/04/24 06:48:07;;;;;;;20.05;8.70;;;;;;;;;;5050374;28;20069;-85
2021/04/24 06:50:33;;;;;;;22.70;8.95;;;;;;;;;;5047913;28;20041;-83
2021/04/24 06:52:59;;;;;;;17.80;8.65;;;;;;;;;;5054872;28;20388;-80
2021/04/24 06:55:26;;;;;;;17.80;9.15;;;;;;;;;;5055828;28;20487;-81
2021/04/24 06:57:52;;;;;;;17.63;8.93;;;;;;;;;;5050958;28;20493;-85
2021/04/24 07:00:18;;;;;;;19.48;9.25;;;;;;;;;;5054693;28;20110;-86
2021/04/24 07:02:44;;;;;;;19.50;9.05;;;;;;;;;;5040499;28;20365;-89
2021/04/24 07:05:12;;;;;;;19.83;8.20;;;;;;;;;;5043780;28;20037;-85
2021/04/24 07:07:38;;;;;;;19.52;8.60;;;;;;;;;;5049488;28;20049;-85
2021/04/24 07:10:06;;;;;;;16.48;8.35;;;;;;;;;;5054992;28;20107;-85
2021/04/24 07:12:32;;;;;;;16.80;7.88;;;;;;;;;;5054504;28;20025;-85
2021/04/24 07:14:58;;;;;;;16.55;7.60;;;;;;;;;;5053958;28;20037;-85
2021/04/24 07:17:24;;;;;;;17.25;8.18;;;;;;;;;;5043434;28;20052;-85
2021/04/24 07:19:50;;;;;;;17.00;8.32;;;;;;;;;;5034346;28;20021;-85
2021/04/24 07:22:16;;;;;;;16.40;8.13;;;;;;;;;;5049529;28;20033;-85
2021/04/24 07:24:45;;;;;;;15.68;7.75;;;;;;;;;;5048244;28;20477;-86
2021/04/24 07:27:11;;;;;;;23.38;8.48;;;;;;;;;;5053876;28;20033;-85
2021/04/24 07:29:37;;;;;;;20.88;8.30;;;;;;;;;;5053528;28;20029;-85
2021/04/24 07:32:03;;;;;;;17.08;8.68;;;;;;;;;;5053879;28;20025;-84
2021/04/24 07:34:29;;;;;;;18.48;9.07;;;;;;;;;;5053749;28;20082;-85
2021/04/24 07:36:55;;;;;;;18.33;7.82;;;;;;;;;;5054844;28;20530;-85
2021/04/24 07:39:21;;;;;;;18.40;8.23;;;;;;;;;;5051772;28;20052;-85
2021/04/24 07:41:47;;;;;;;14.93;7.45;;;;;;;;;;5049628;28;20017;-83
2021/04/24 07:44:13;;;;;;;14.13;7.72;;;;;;;;;;5053954;28;20021;-84
2021/04/24 07:46:39;;;;;;;15.63;6.43;;;;;;;;;;5054114;28;20389;-83
2021/04/24 07:49:05;;;;;;;12.15;6.90;;;;;;;;;;5054388;28;20119;-84
2021/04/24 07:51:31;;;;;;;12.93;6.72;;;;;;;;;;5053259;28;20301;-84
2021/04/24 07:53:57;;;;;;;13.20;6.47;;;;;;;;;;5053038;28;20040;-85
2021/04/24 07:56:23;;;;;;;11.85;6.10;;;;;;;;;;5053423;28;20025;-84
2021/04/24 07:58:49;;;;;;;16.75;6.25;;;;;;;;;;5042077;28;20032;-84
2021/04/24 08:01:15;;;;;;;13.02;6.35;;;;;;;;;;5036938;28;20029;-83
2021/04/24 08:03:42;;;;;;;15.45;5.50;;;;;;;;;;5047233;28;20025;-85
2021/04/24 08:06:08;;;;;;;14.50;5.68;;;;;;;;;;5056307;28;20098;-85
2021/04/24 08:08:34;;;;;;;15.43;5.72;;;;;;;;;;5053539;28;20055;-84
2021/04/24 08:11:00;;;;;;;15.07;5.72;;;;;;;;;;5073832;28;20039;-85
2021/04/24 08:13:26;;;;;;;11.35;5.78;;;;;;;;;;5056404;28;20501;-85
2021/04/24 08:15:52;;;;;;;10.55;5.22;;;;;;;;;;5056775;28;20070;-85
2021/04/24 08:18:18;;;;;;;12.30;5.70;;;;;;;;;;5050152;28;20036;-83
2021/04/24 08:20:44;;;;;;;11.38;4.75;;;;;;;;;;5054246;28;20145;-83
2021/04/24 08:23:10;;;;;;;8.05;4.72;;;;;;;;;;5052390;28;20028;-84
2021/04/24 08:25:36;;;;;;;11.95;4.75;;;;;;;;;;5074188;28;20099;-84
2021/04/24 08:28:02;;;;;;;10.32;4.82;;;;;;;;;;5051745;28;20534;-84
2021/04/24 08:30:30;;;;;;;9.10;4.97;;;;;;;;;;5048684;28;20074;-84
2021/04/24 08:32:57;;;;;;;13.60;5.10;;;;;;;;;;5056636;28;20044;-84
2021/04/24 08:35:23;;;;;;;10.27;4.85;;;;;;;;;;5050703;28;20025;-83
2021/04/24 08:37:49;;;;;;;10.10;4.28;;;;;;;;;;5043613;28;20024;-85
2021/04/24 08:40:17;;;;;;;7.65;3.83;;;;;;;;;;5052601;28;20043;-85
2021/04/24 08:42:43;;;;;;;9.25;4.38;;;;;;;;;;5054040;28;20490;-84
2021/04/24 08:45:22;;;;;;;6.50;3.25;;;;;;;;;;5053837;28;20048;-85
2021/04/24 08:47:49;;;;;;;6.90;3.10;;;;;;;;;;5052348;28;20722;-85
2021/04/24 08:50:19;;;;;;;10.75;3.90;;;;;;;;;;5073647;28;20028;-85
2021/04/24 08:52:45;;;;;;;10.20;3.95;;;;;;;;;;5073594;28;20105;-85
2021/04/24 08:55:15;;;;;;;6.45;3.08;;;;;;;;;;5055564;28;20044;-85
2021/04/24 08:57:42;;;;;;;7.05;3.30;;;;;;;;;;5055580;28;20028;-85
2021/04/24 09:00:08;;;;;;;10.38;4.03;;;;;;;;;;5055449;28;20135;-85
2021/04/24 09:02:34;;;;;;;7.25;3.40;;;;;;;;;;5055930;28;20029;-85
2021/04/24 09:05:01;;;;;;;9.75;3.25;;;;;;;;;;5040084;28;20442;-85
2021/04/24 09:07:27;;;;;;;8.32;3.00;;;;;;;;;;5066809;28;20037;-85
2021/04/24 09:10:00;;;;;;;12.43;3.95;;;;;;;;;;5046513;28;20052;-85
2021/04/24 09:12:36;;;;;;;5.85;3.33;;;;;;;;;;5048773;28;20033;-84
2021/04/24 09:15:22;;;;;;;7.03;3.67;;;;;;;;;;5048233;28;20043;-84
2021/04/24 09:17:51;;;;;;;10.20;3.58;;;;;;;;;;5053678;28;20021;-85
2021/04/24 09:20:17;;;;;;;7.20;3.80;;;;;;;;;;5058368;28;20061;-85
2021/04/24 09:22:53;;;;;;;7.32;2.55;;;;;;;;;;5057829;28;20096;-85
2021/04/24 09:25:18;;;;;;;8.75;3.03;;;;;;;;;;5045120;28;20042;-85
2021/04/24 09:27:47;;;;;;;6.35;2.75;;;;;;;;;;5058475;28;20029;-85
2021/04/24 09:30:16;;;;;;;7.97;3.40;;;;;;;;;;5078160;28;20495;-85
2021/04/24 09:32:42;;;;;;;9.63;4.35;;;;;;;;;;5054261;28;20814;-85
2021/04/24 09:35:08;;;;;;;7.55;3.58;;;;;;;;;;5059134;28;20040;-85
2021/04/24 09:37:34;;;;;;;7.05;3.05;;;;;;;;;;5058059;28;20116;-85
2021/04/24 09:40:00;;;;;;;8.52;3.80;;;;;;;;;;5058510;28;20020;-85
2021/04/24 09:42:33;;;;;;;7.70;3.72;;;;;;;;;;5053240;28;20031;-85
2021/04/24 09:44:59;;;;;;;9.20;3.55;;;;;;;;;;5049245;28;20470;-86
2021/04/24 09:47:46;;;;;;;8.65;3.35;;;;;;;;;;5076529;28;20499;-85
2021/04/24 09:50:15;;;;;;;6.25;2.85;;;;;;;;;;5051730;28;20038;-86
2021/04/24 09:53:12;;;;;;;7.68;3.05;;;;;;;;;;5057992;28;20085;-85
2021/04/24 09:55:38;;;;;;;8.15;3.10;;;;;;;;;;5053942;28;20035;-85
2021/04/24 09:58:05;;;;;;;11.90;3.35;;;;;;;;;;5070736;28;20027;-85
2021/04/24 10:00:31;;;;;;;8.23;2.65;;;;;;;;;;5071534;28;20028;-85
2021/04/24 10:02:59;;;;;;;7.53;2.72;;;;;;;;;;5055348;28;20032;-85
2021/04/24 10:05:25;;;;;;;6.60;3.20;;;;;;;;;;5052349;28;20357;-85
2021/04/24 10:07:55;;;;;;;5.60;2.50;;;;;;;;;;5057658;28;20059;-86
2021/04/24 10:10:24;;;;;;;8.77;3.15;;;;;;;;;;5075893;28;20047;-85
2021/04/24 10:12:57;;;;;;;6.38;2.97;;;;;;;;;;5054738;28;20468;-85
2021/04/24 10:15:36;;;;;;;7.82;2.65;;;;;;;;;;5058223;28;20021;-85
2021/04/24 10:18:02;;;;;;;6.38;2.80;;;;;;;;;;5050999;28;20035;-85
2021/04/24 10:20:28;;;;;;;8.40;3.50;;;;;;;;;;5053083;28;20067;-85
2021/04/24 10:22:55;;;;;;;6.07;2.83;;;;;;;;;;5056777;28;20048;-85
2021/04/24 10:25:22;;;;;;;6.97;2.60;;;;;;;;;;5057747;28;20036;-85
2021/04/24 10:27:48;;;;;;;8.02;2.97;;;;;;;;;;5058144;28;20422;-85
2021/04/24 10:30:14;;;;;;;6.78;3.15;;;;;;;;;;5073871;28;20048;-85
2021/04/24 10:32:40;;;;;;;10.23;4.10;;;;;;;;;;5053982;28;20033;-85
2021/04/24 10:35:06;;;;;;;10.88;3.38;;;;;;;;;;5037874;28;20120;-85
2021/04/24 10:37:32;;;;;;;6.88;2.90;;;;;;;;;;5056965;28;20028;-85
2021/04/24 10:40:02;;;;;;;10.60;3.78;;;;;;;;;;5049932;28;20469;-85
2021/04/24 10:42:30;;;;;;;6.97;3.40;;;;;;;;;;5037786;28;20134;-85
2021/04/24 10:45:07;;;;;;;5.43;3.47;;;;;;;;;;5049599;28;20029;-85
2021/04/24 10:47:55;;;;;;;7.50;3.60;;;;;;;;;;5057356;28;20069;-85
2021/04/24 10:50:22;;;;;;;5.13;2.60;;;;;;;;;;5057793;28;20033;-85
2021/04/24 10:52:51;;;;;;;7.03;3.15;;;;;;;;;;5052423;28;20017;-85
2021/04/24 10:55:19;;;;;;;4.90;2.47;;;;;;;;;;5052108;28;20040;-86
2021/04/24 10:57:45;;;;;;;6.18;2.13;;;;;;;;;;5046471;28;20483;-86
2021/04/24 11:00:13;;;;;;;6.30;3.35;;;;;;;;;;5053671;28;20024;-85
2021/04/24 11:02:42;;;;;;;6.10;2.60;;;;;;;;;;5045254;28;20604;-86
2021/04/24 11:05:17;;;;;;;7.85;2.85;;;;;;;;;;5056744;28;20032;-85
2021/04/24 11:07:43;;;;;;;7.45;2.70;;;;;;;;;;5053034;28;20380;-85
2021/04/24 11:10:13;;;;;;;10.38;3.17;;;;;;;;;;5039056;28;20035;-85
2021/04/24 11:12:43;;;;;;;7.78;2.67;;;;;;;;;;5056502;28;20040;-85
2021/04/24 11:15:10;;;;;;;7.72;3.00;;;;;;;;;;5056268;28;20395;-85
2021/04/24 11:17:39;;;;;;;6.70;2.70;;;;;;;;;;5056527;28;20128;-84
2021/04/24 11:20:07;;;;;;;6.80;2.85;;;;;;;;;;5055994;28;20043;-84
2021/04/24 11:22:34;;;;;;;5.95;2.80;;;;;;;;;;5044483;28;20044;-84
2021/04/24 11:25:20;;;;;;;7.68;2.83;;;;;;;;;;5055916;28;20020;-83
2021/04/24 11:28:06;;;;;;;7.63;2.67;;;;;;;;;;5069438;28;20484;-84
2021/04/24 11:30:52;;;;;;;6.57;2.80;;;;;;;;;;5056779;28;20020;-84
2021/04/24 11:33:38;;;;;;;5.90;2.67;;;;;;;;;;5075095;28;20052;-84
2021/04/24 11:36:20;;;;;;;7.05;2.90;;;;;;;;;;5073520;28;20020;-84
2021/04/24 11:41:40;;;;;;;6.43;2.38;;;;;;;;;;5075237;28;20535;-84
2021/04/24 11:44:21;;;;;;;9.32;2.78;;;;;;;;;;5055063;28;20032;-85
2021/04/24 11:46:51;;;;;;;5.75;2.15;;;;;;;;;;5056747;28;20020;-85
2021/04/24 11:49:18;;;;;;;10.75;2.88;;;;;;;;;;5040836;28;20033;-84
2021/04/24 11:51:46;;;;;;;9.27;2.90;;;;;;;;;;5036779;28;20044;-85
2021/04/24 11:54:13;;;;;;;7.00;2.75;;;;;;;;;;5036958;28;20028;-84
2021/04/24 11:56:43;;;;;;;9.75;3.10;;;;;;;;;;5062046;28;20357;-85
2021/04/24 11:59:09;;;;;;;6.65;2.78;;;;;;;;;;5055957;28;20029;-85
2021/04/24 12:01:35;;;;;;;7.40;2.83;;;;;;;;;;5054177;28;20021;-85
2021/04/24 12:04:01;;;;;;;6.25;2.58;;;;;;;;;;5056658;28;20047;-85
2021/04/24 12:06:34;;;;;;;11.27;3.30;;;;;;;;;;5043081;28;20072;-84
2021/04/24 12:09:04;;;;;;;9.70;2.63;;;;;;;;;;5048254;28;20024;-84
2021/04/24 12:11:30;;;;;;;6.97;3.00;;;;;;;;;;5056607;28;20036;-85
2021/04/24 12:13:57;;;;;;;9.48;3.00;;;;;;;;;;5052426;28;20016;-85
2021/04/24 12:16:37;;;;;;;8.73;2.95;;;;;;;;;;5074099;28;20110;-85
2021/04/24 12:19:22;;;;;;;11.45;2.97;;;;;;;;;;5055978;28;20460;-86
2021/04/24 12:21:59;;;;;;;5.40;2.45;;;;;;;;;;5045002;28;20064;-85
2021/04/24 12:24:25;;;;;;;6.03;2.70;;;;;;;;;;5055845;28;20361;-85
2021/04/24 12:26:51;;;;;;;7.80;3.30;;;;;;;;;;5041353;28;20068;-85
2021/04/24 12:29:37;;;;;;;6.40;2.60;;;;;;;;;;5041441;28;20547;-87
2021/04/24 12:32:29;;;;;;;5.30;2.30;;;;;;;;;;5045217;28;20020;-85
2021/04/24 12:34:55;;;;;;;6.28;2.75;;;;;;;;;;5053176;28;20154;-84
2021/04/24 12:37:23;;;;;;;8.27;2.45;;;;;;;;;;5055902;28;20115;-84
2021/04/24 12:40:21;;;;;;;7.10;2.55;;;;;;;;;;5063029;28;20116;-84
2021/04/24 12:42:48;;;;;;;5.30;2.63;;;;;;;;;;5001972;28;20025;-84
2021/04/24 12:45:16;;;;;;;8.10;3.08;;;;;;;;;;5058503;28;20025;-84
2021/04/24 12:47:42;;;;;;;10.82;3.30;;;;;;;;;;5048028;28;20021;-85
2021/04/24 12:50:13;;;;;;;6.07;2.63;;;;;;;;;;5054322;28;20380;-85
2021/04/24 12:52:46;;;;;;;8.52;3.30;;;;;;;;;;5069624;28;20055;-85
2021/04/24 12:55:12;;;;;;;8.60;3.05;;;;;;;;;;5053978;28;20032;-84
2021/04/24 12:57:47;;;;;;;6.00;2.45;;;;;;;;;;5067760;28;20122;-84
2021/04/24 13:00:14;;;;;;;8.30;3.25;;;;;;;;;;5055597;28;20070;-86
2021/04/24 13:02:40;;;;;;;6.93;2.55;;;;;;;;;;5055429;28;20017;-85
2021/04/24 13:05:07;;;;;;;8.05;2.70;;;;;;;;;;5056593;28;20130;-84
2021/04/24 13:07:33;;;;;;;6.22;2.65;;;;;;;;;;5053707;28;20098;-85
2021/04/24 13:09:59;;;;;;;6.88;3.03;;;;;;;;;;5055324;28;20060;-84
2021/04/24 13:12:26;;;;;;;3.95;2.35;;;;;;;;;;5055440;28;20078;-84
2021/04/24 13:14:53;;;;;;;8.40;3.05;;;;;;;;;;5050554;28;20060;-84
2021/04/24 13:17:21;;;;;;;5.90;2.83;;;;;;;;;;5038883;28;20082;-83
2021/04/24 13:19:48;;;;;;;5.50;2.67;;;;;;;;;;5054489;28;20032;-83
2021/04/24 13:22:29;;;;;;;8.25;2.60;;;;;;;;;;5044599;28;20029;-84
2021/04/24 13:25:00;;;;;;;11.38;2.80;;;;;;;;;;5054966;28;20024;-84
2021/04/24 13:27:26;;;;;;;6.63;2.03;;;;;;;;;;5055828;28;20024;-83
2021/04/24 13:29:52;;;;;;;6.18;2.40;;;;;;;;;;5046654;28;20056;-84
2021/04/24 13:32:18;;;;;;;6.70;2.47;;;;;;;;;;5050820;28;20082;-84
2021/04/24 13:34:45;;;;;;;11.80;2.42;;;;;;;;;;5048700;28;20025;-84
2021/04/24 13:37:12;;;;;;;3.65;2.08;;;;;;;;;;5043503;28;20021;-84
2021/04/24 13:39:47;;;;;;;5.20;2.10;;;;;;;;;;5040368;28;20100;-84
2021/04/24 13:42:19;;;;;;;4.03;1.50;;;;;;;;;;5053775;28;20044;-84
2021/04/24 13:44:46;;;;;;;4.60;1.75;;;;;;;;;;5046915;28;20052;-85
2021/04/24 13:47:19;;;;;;;6.78;2.40;;;;;;;;;;5041119;28;20028;-84
2021/04/24 13:49:45;;;;;;;5.97;1.90;;;;;;;;;;5042338;28;20033;-84
2021/04/24 13:52:11;;;;;;;6.05;2.08;;;;;;;;;;5054682;28;20372;-84
2021/04/24 13:54:37;;;;;;;5.65;1.80;;;;;;;;;;5047096;28;20031;-84
2021/04/24 13:57:03;;;;;;;3.55;1.67;;;;;;;;;;5041748;28;20044;-84
2021/04/24 13:59:29;;;;;;;5.53;1.58;;;;;;;;;;5042242;28;20492;-84
2021/04/24 14:01:55;;;;;;;6.03;1.90;;;;;;;;;;5070740;28;20032;-84
2021/04/24 14:04:21;;;;;;;4.97;2.13;;;;;;;;;;5052329;28;20071;-84
2021/04/24 14:06:47;;;;;;;5.43;2.10;;;;;;;;;;5068146;28;20374;-84
2021/04/24 14:09:13;;;;;;;5.60;1.92;;;;;;;;;;5051883;28;20075;-84
2021/04/24 14:11:41;;;;;;;6.43;1.90;;;;;;;;;;5052679;28;20086;-83
2021/04/24 14:14:07;;;;;;;3.90;1.65;;;;;;;;;;5057435;28;20028;-83
2021/04/24 14:16:33;;;;;;;3.53;1.58;;;;;;;;;;5051649;28;20484;-84
2021/04/24 14:18:59;;;;;;;3.92;2.03;;;;;;;;;;5041317;28;20059;-84
2021/04/24 14:21:25;;;;;;;6.85;2.10;;;;;;;;;;5058821;28;20052;-84
2021/04/24 14:23:52;;;;;;;5.68;2.25;;;;;;;;;;5039840;28;20029;-84
2021/04/24 14:26:18;;;;;;;5.78;1.60;;;;;;;;;;5073951;28;20025;-84
2021/04/24 14:28:44;;;;;;;4.13;1.67;;;;;;;;;;5054324;28;20541;-84
2021/04/24 14:31:12;;;;;;;2.78;1.58;;;;;;;;;;5040656;28;20078;-85
2021/04/24 14:33:38;;;;;;;6.28;1.67;;;;;;;;;;5054729;28;20036;-85
2021/04/24 14:36:04;;;;;;;6.45;2.25;;;;;;;;;;5057427;28;20029;-85
2021/04/24 14:38:30;;;;;;;4.90;1.90;;;;;;;;;;5054414;28;20025;-85
2021/04/24 14:40:56;;;;;;;5.68;1.70;;;;;;;;;;5057632;28;20028;-85